sensor_id;sensor_type;location;lat;lon;timestamp;pressure;altitude;pressure_sealevel;temperature;humidity
51261;BME280;61705;46.228;24.812;2023-01-26T00:01:20;98253.53;;;-0.88;63.29
51261;BME280;61705;46.228;24.812;2023-01-26T00:03:47;98250.97;;;-0.84;63.86
51261;BME280;61705;46.228;24.812;2023-01-26T00:06:18;98248.34;;;-0.87;63.58
51261;BME280;61705;46.228;24.812;2023-01-26T00:08:50;98244.00;;;-0.91;63.14
51261;BME280;61705;46.228;24.812;2023-01-26T00:11:20;98253.53;;;-0.88;63.02
51261;BME280;61705;46.228;24.812;2023-01-26T00:13:49;98246.56;;;-0.96;62.39
51261;BME280;61705;46.228;24.812;2023-01-26T00:16:16;98249.16;;;-0.96;62.31
51261;BME280;61705;46.228;24.812;2023-01-26T00:18:43;98239.78;;;-0.77;62.03
51261;BME280;61705;46.228;24.812;2023-01-26T00:21:17;98238.03;;;-0.79;61.84
51261;BME280;61705;46.228;24.812;2023-01-26T00:23:45;98237.97;;;-0.87;62.23
51261;BME280;61705;46.228;24.812;2023-01-26T00:26:17;98237.13;;;-0.84;62.58
51261;BME280;61705;46.228;24.812;2023-01-26T00:28:45;98237.16;;;-0.80;62.95
51261;BME280;61705;46.228;24.812;2023-01-26T00:31:17;98237.13;;;-0.84;62.58
51261;BME280;61705;46.228;24.812;2023-01-26T00:33:44;98232.81;;;-0.84;62.83
51261;BME280;61705;46.228;24.812;2023-01-26T00:36:12;98231.06;;;-0.88;62.94
51261;BME280;61705;46.228;24.812;2023-01-26T00:38:41;98227.59;;;-0.87;63.42
51261;BME280;61705;46.228;24.812;2023-01-26T00:41:09;98230.16;;;-0.90;63.09
51261;BME280;61705;46.228;24.812;2023-01-26T00:43:55;98224.13;;;-0.87;63.23
51261;BME280;61705;46.228;24.812;2023-01-26T00:46:22;98224.13;;;-0.87;63.17
51261;BME280;61705;46.228;24.812;2023-01-26T00:48:51;98214.59;;;-0.91;63.56
51261;BME280;61705;46.228;24.812;2023-01-26T00:51:18;98225.84;;;-0.86;63.79
51261;BME280;61705;46.228;24.812;2023-01-26T00:53:44;98214.59;;;-0.90;63.69
51261;BME280;61705;46.228;24.812;2023-01-26T00:56:11;98205.94;;;-0.90;63.78
51261;BME280;61705;46.228;24.812;2023-01-26T00:58:40;98202.50;;;-0.88;63.87
51261;BME280;61705;46.228;24.812;2023-01-26T01:01:07;98197.28;;;-0.91;63.79
51261;BME280;61705;46.228;24.812;2023-01-26T01:03:34;98191.25;;;-0.91;63.74
51261;BME280;61705;46.228;24.812;2023-01-26T01:06:01;98191.25;;;-0.90;64.06
51261;BME280;61705;46.228;24.812;2023-01-26T01:08:27;98198.16;;;-0.90;64.28
51261;BME280;61705;46.228;24.812;2023-01-26T01:11:05;98186.91;;;-0.96;64.27
51261;BME280;61705;46.228;24.812;2023-01-26T01:13:32;98193.88;;;-0.88;64.35
51261;BME280;61705;46.228;24.812;2023-01-26T01:15:59;98182.59;;;-0.92;64.51
51261;BME280;61705;46.228;24.812;2023-01-26T01:18:26;98191.19;;;-0.96;65.16
51261;BME280;61705;46.228;24.812;2023-01-26T01:20:52;98186.94;;;-0.88;65.53
51261;BME280;61705;46.228;24.812;2023-01-26T01:23:19;98180.91;;;-0.87;66.01
51261;BME280;61705;46.228;24.812;2023-01-26T01:25:46;98179.97;;;-0.95;66.09
51261;BME280;61705;46.228;24.812;2023-01-26T01:28:12;98171.34;;;-0.96;66.21
51261;BME280;61705;46.228;24.812;2023-01-26T01:30:39;98162.59;;;-1.04;66.16
51261;BME280;61705;46.228;24.812;2023-01-26T01:33:06;98165.19;;;-1.05;65.95
51261;BME280;61705;46.228;24.812;2023-01-26T01:35:33;98164.31;;;-1.03;65.95
51261;BME280;61705;46.228;24.812;2023-01-26T01:38:01;98174.69;;;-1.09;66.90
51261;BME280;61705;46.228;24.812;2023-01-26T01:40:28;98166.88;;;-1.12;67.45
51261;BME280;61705;46.228;24.812;2023-01-26T01:42:54;98166.00;;;-1.12;68.65
51261;BME280;61705;46.228;24.812;2023-01-26T01:45:41;98172.91;;;-1.11;69.50
51261;BME280;61705;46.228;24.812;2023-01-26T01:48:40;98164.25;;;-1.15;69.57
51261;BME280;61705;46.228;24.812;2023-01-26T01:51:26;98165.94;;;-1.17;69.93
51261;BME280;61705;46.228;24.812;2023-01-26T01:53:56;98164.22;;;-1.20;69.96
51261;BME280;61705;46.228;24.812;2023-01-26T01:56:27;98163.41;;;-1.12;69.33
51261;BME280;61705;46.228;24.812;2023-01-26T01:58:57;98152.16;;;-1.11;68.98
51261;BME280;61705;46.228;24.812;2023-01-26T02:01:24;98149.56;;;-1.10;69.08
51261;BME280;61705;46.228;24.812;2023-01-26T02:03:55;98148.78;;;-1.06;69.13
51261;BME280;61705;46.228;24.812;2023-01-26T02:06:32;98150.44;;;-1.12;68.59
51261;BME280;61705;46.228;24.812;2023-01-26T02:09:01;98148.78;;;-1.04;68.19
51261;BME280;61705;46.228;24.812;2023-01-26T02:11:37;98141.84;;;-1.05;68.11
51261;BME280;61705;46.228;24.812;2023-01-26T02:14:08;98141.81;;;-1.07;67.94
51261;BME280;61705;46.228;24.812;2023-01-26T02:16:35;98136.63;;;-1.08;67.80
51261;BME280;61705;46.228;24.812;2023-01-26T02:19:21;98139.28;;;-1.02;67.36
51261;BME280;61705;46.228;24.812;2023-01-26T02:21:53;98120.25;;;-1.04;67.09
51261;BME280;61705;46.228;24.812;2023-01-26T02:24:28;98130.63;;;-1.00;67.10
51261;BME280;61705;46.228;24.812;2023-01-26T02:26:58;98122.84;;;-1.04;67.26
51261;BME280;61705;46.228;24.812;2023-01-26T02:29:25;98119.31;;;-1.11;67.43
51261;BME280;61705;46.228;24.812;2023-01-26T02:31:52;98118.47;;;-1.10;67.55
51261;BME280;61705;46.228;24.812;2023-01-26T02:34:20;98116.75;;;-1.08;67.51
51261;BME280;61705;46.228;24.812;2023-01-26T02:36:56;98115.91;;;-1.05;67.20
51261;BME280;61705;46.228;24.812;2023-01-26T02:41:51;98100.38;;;-1.05;66.73
51261;BME280;61705;46.228;24.812;2023-01-26T02:44:37;98099.50;;;-1.06;67.01
51261;BME280;61705;46.228;24.812;2023-01-26T02:47:16;98094.31;;;-1.06;67.00
51261;BME280;61705;46.228;24.812;2023-01-26T02:49:43;98089.97;;;-1.04;67.04
51261;BME280;61705;46.228;24.812;2023-01-26T02:52:18;98094.31;;;-1.04;67.18
51261;BME280;61705;46.228;24.812;2023-01-26T02:54:45;98097.78;;;-1.05;67.32
51261;BME280;61705;46.228;24.812;2023-01-26T02:57:31;98092.56;;;-1.07;67.58
51261;BME280;61705;46.228;24.812;2023-01-26T03:00:02;98099.41;;;-1.18;69.20
51261;BME280;61705;46.228;24.812;2023-01-26T03:02:29;98095.91;;;-1.22;69.44
51261;BME280;61705;46.228;24.812;2023-01-26T03:04:56;98101.16;;;-1.15;69.44
51261;BME280;61705;46.228;24.812;2023-01-26T03:07:25;98100.28;;;-1.13;69.29
51261;BME280;61705;46.228;24.812;2023-01-26T03:09:55;98108.06;;;-1.13;68.90
51261;BME280;61705;46.228;24.812;2023-01-26T03:12:24;98094.22;;;-1.15;69.30
51261;BME280;61705;46.228;24.812;2023-01-26T03:14:51;98096.81;;;-1.15;69.68
51261;BME280;61705;46.228;24.812;2023-01-26T03:17:43;98084.72;;;-1.14;69.58
51261;BME280;61705;46.228;24.812;2023-01-26T03:20:12;98079.53;;;-1.19;69.83
51261;BME280;61705;46.228;24.812;2023-01-26T03:22:57;98077.78;;;-1.18;70.10
51261;BME280;61705;46.228;24.812;2023-01-26T03:25:43;98077.78;;;-1.17;70.39
51261;BME280;61705;46.228;24.812;2023-01-26T03:28:28;98069.97;;;-1.22;70.69
51261;BME280;61705;46.228;24.812;2023-01-26T03:31:04;98069.16;;;-1.17;70.65
51261;BME280;61705;46.228;24.812;2023-01-26T03:33:32;98072.59;;;-1.18;70.53
51261;BME280;61705;46.228;24.812;2023-01-26T03:35:58;98066.53;;;-1.21;70.52
51261;BME280;61705;46.228;24.812;2023-01-26T03:38:25;98063.09;;;-1.16;70.59
51261;BME280;61705;46.228;24.812;2023-01-26T03:40:57;98060.50;;;-1.18;70.68
51261;BME280;61705;46.228;24.812;2023-01-26T03:43:43;98057.06;;;-1.15;70.47
51261;BME280;61705;46.228;24.812;2023-01-26T03:46:28;98056.19;;;-1.13;70.38
51261;BME280;61705;46.228;24.812;2023-01-26T03:49:13;98053.63;;;-1.11;70.75
51261;BME280;61705;46.228;24.812;2023-01-26T03:52:01;98053.59;;;-1.17;71.09
51261;BME280;61705;46.228;24.812;2023-01-26T03:54:46;98056.22;;;-1.16;70.98
51261;BME280;61705;46.228;24.812;2023-01-26T03:57:36;98038.84;;;-1.23;71.26
51261;BME280;61705;46.228;24.812;2023-01-26T04:00:03;98031.97;;;-1.23;71.32
51261;BME280;61705;46.228;24.812;2023-01-26T04:02:32;98044.03;;;-1.23;71.35
51261;BME280;61705;46.228;24.812;2023-01-26T04:05:17;98041.41;;;-1.29;71.55
51261;BME280;61705;46.228;24.812;2023-01-26T04:08:03;98027.56;;;-1.31;71.84
51261;BME280;61705;46.228;24.812;2023-01-26T04:11:08;98022.31;;;-1.40;72.51
51261;BME280;61705;46.228;24.812;2023-01-26T04:13:35;98026.59;;;-1.46;72.71
51261;BME280;61705;46.228;24.812;2023-01-26T04:16:20;98024.84;;;-1.50;72.92
51261;BME280;61705;46.228;24.812;2023-01-26T04:19:06;98012.69;;;-1.55;73.11
51261;BME280;61705;46.228;24.812;2023-01-26T04:21:52;98013.50;;;-1.62;73.06
51261;BME280;61705;46.228;24.812;2023-01-26T04:24:18;98014.31;;;-1.70;73.39
51261;BME280;61705;46.228;24.812;2023-01-26T04:26:47;98007.34;;;-1.77;73.03
51261;BME280;61705;46.228;24.812;2023-01-26T04:29:15;98022.81;;;-1.87;73.92
51261;BME280;61705;46.228;24.812;2023-01-26T04:31:43;98018.47;;;-1.90;73.22
51261;BME280;61705;46.228;24.812;2023-01-26T04:34:14;98020.97;;;-1.98;74.00
51261;BME280;61705;46.228;24.812;2023-01-26T04:36:43;98015.72;;;-2.07;74.12
51261;BME280;61705;46.228;24.812;2023-01-26T04:39:13;98015.78;;;-2.01;74.14
51261;BME280;61705;46.228;24.812;2023-01-26T04:41:42;98017.44;;;-2.06;74.03
51261;BME280;61705;46.228;24.812;2023-01-26T04:44:08;98020.00;;;-2.10;73.80
51261;BME280;61705;46.228;24.812;2023-01-26T04:46:35;98019.91;;;-2.18;73.92
51261;BME280;61705;46.228;24.812;2023-01-26T04:49:02;98020.75;;;-2.21;74.10
51261;BME280;61705;46.228;24.812;2023-01-26T04:51:29;98019.91;;;-2.18;73.96
51261;BME280;61705;46.228;24.812;2023-01-26T04:53:59;98008.56;;;-2.29;73.97
51261;BME280;61705;46.228;24.812;2023-01-26T04:56:32;98016.31;;;-2.32;74.06
51261;BME280;61705;46.228;24.812;2023-01-26T04:59:02;98005.91;;;-2.39;74.04
51261;BME280;61705;46.228;24.812;2023-01-26T05:01:29;98020.56;;;-2.39;74.07
51261;BME280;61705;46.228;24.812;2023-01-26T05:04:00;98015.25;;;-2.50;74.36
51261;BME280;61705;46.228;24.812;2023-01-26T05:06:27;98017.78;;;-2.56;74.50
51261;BME280;61705;46.228;24.812;2023-01-26T05:08:57;98018.56;;;-2.63;74.66
51261;BME280;61705;46.228;24.812;2023-01-26T05:11:24;98017.69;;;-2.62;74.83
51261;BME280;61705;46.228;24.812;2023-01-26T05:13:52;98017.56;;;-2.73;74.82
51261;BME280;61705;46.228;24.812;2023-01-26T05:16:18;98024.44;;;-2.76;75.12
51261;BME280;61705;46.228;24.812;2023-01-26T05:18:50;98014.03;;;-2.78;75.03
51261;BME280;61705;46.228;24.812;2023-01-26T05:21:19;98011.38;;;-2.84;75.00
51261;BME280;61705;46.228;24.812;2023-01-26T05:23:47;98010.47;;;-2.88;75.36
51261;BME280;61705;46.228;24.812;2023-01-26T05:26:17;98013.94;;;-2.87;75.90
51261;BME280;61705;46.228;24.812;2023-01-26T05:28:46;98007.88;;;-2.88;76.39
51261;BME280;61705;46.228;24.812;2023-01-26T05:31:13;98008.69;;;-2.92;75.98
51261;BME280;61705;46.228;24.812;2023-01-26T05:33:42;98002.66;;;-2.92;75.69
51261;BME280;61705;46.228;24.812;2023-01-26T05:36:09;98008.69;;;-2.92;75.75
51261;BME280;61705;46.228;24.812;2023-01-26T05:38:38;98009.59;;;-2.88;75.61
51261;BME280;61705;46.228;24.812;2023-01-26T05:41:06;98016.53;;;-2.87;76.10
51261;BME280;61705;46.228;24.812;2023-01-26T05:43:35;98021.63;;;-2.92;76.01
51261;BME280;61705;46.228;24.812;2023-01-26T05:46:02;98026.75;;;-2.95;76.14
51261;BME280;61705;46.228;24.812;2023-01-26T05:48:31;98018.16;;;-2.94;76.16
51261;BME280;61705;46.228;24.812;2023-01-26T05:50:57;98019.94;;;-2.90;75.95
51261;BME280;61705;46.228;24.812;2023-01-26T05:53:24;98015.63;;;-2.88;76.00
51261;BME280;61705;46.228;24.812;2023-01-26T05:55:51;98012.22;;;-2.85;75.90
51261;BME280;61705;46.228;24.812;2023-01-26T05:58:21;98004.44;;;-2.88;76.01
51261;BME280;61705;46.228;24.812;2023-01-26T06:00:47;98003.44;;;-2.98;76.14
51261;BME280;61705;46.228;24.812;2023-01-26T06:03:14;97996.53;;;-3.00;76.29
51261;BME280;61705;46.228;24.812;2023-01-26T06:05:51;98000.84;;;-2.98;76.13
51261;BME280;61705;46.228;24.812;2023-01-26T06:08:18;98003.44;;;-2.99;76.69
51261;BME280;61705;46.228;24.812;2023-01-26T06:10:44;98000.91;;;-2.96;76.37
51261;BME280;61705;46.228;24.812;2023-01-26T06:13:11;97995.69;;;-2.99;76.30
51261;BME280;61705;46.228;24.812;2023-01-26T06:15:38;98005.16;;;-3.00;76.81
51261;BME280;61705;46.228;24.812;2023-01-26T06:18:04;97998.31;;;-2.95;76.98
51261;BME280;61705;46.228;24.812;2023-01-26T06:20:34;98003.53;;;-2.93;76.58
51261;BME280;61705;46.228;24.812;2023-01-26T06:23:00;98003.53;;;-2.93;76.57
51261;BME280;61705;46.228;24.812;2023-01-26T06:25:27;98004.47;;;-2.87;76.29
51261;BME280;61705;46.228;24.812;2023-01-26T06:27:57;97999.31;;;-2.85;76.37
51261;BME280;61705;46.228;24.812;2023-01-26T06:30:24;98007.06;;;-2.85;76.32
51261;BME280;61705;46.228;24.812;2023-01-26T06:32:51;97998.44;;;-2.86;76.57
51261;BME280;61705;46.228;24.812;2023-01-26T06:35:18;97999.34;;;-2.83;76.38
51261;BME280;61705;46.228;24.812;2023-01-26T06:37:49;97994.09;;;-2.88;76.69
51261;BME280;61705;46.228;24.812;2023-01-26T06:40:16;97992.31;;;-2.94;76.80
51261;BME280;61705;46.228;24.812;2023-01-26T06:42:47;97989.75;;;-2.91;76.98
51261;BME280;61705;46.228;24.812;2023-01-26T06:45:14;97988.09;;;-2.84;76.81
51261;BME280;61705;46.228;24.812;2023-01-26T06:47:47;97993.28;;;-2.84;76.59
51261;BME280;61705;46.228;24.812;2023-01-26T06:50:22;97993.09;;;-2.99;77.41
51261;BME280;61705;46.228;24.812;2023-01-26T06:52:54;97991.41;;;-2.97;77.30
51261;BME280;61705;46.228;24.812;2023-01-26T06:55:31;97996.75;;;-2.80;76.96
51261;BME280;61705;46.228;24.812;2023-01-26T06:57:59;97987.28;;;-2.81;77.03
51261;BME280;61705;46.228;24.812;2023-01-26T07:00:26;97995.97;;;-2.76;77.09
51261;BME280;61705;46.228;24.812;2023-01-26T07:02:53;97992.66;;;-2.66;76.77
51261;BME280;61705;46.228;24.812;2023-01-26T07:05:20;97990.06;;;-2.65;76.39
51261;BME280;61705;46.228;24.812;2023-01-26T07:07:47;97984.91;;;-2.65;76.92
51261;BME280;61705;46.228;24.812;2023-01-26T07:10:14;97986.69;;;-2.59;76.92
51261;BME280;61705;46.228;24.812;2023-01-26T07:12:43;97983.25;;;-2.59;76.75
51261;BME280;61705;46.228;24.812;2023-01-26T07:15:12;97985.00;;;-2.55;76.84
51261;BME280;61705;46.228;24.812;2023-01-26T07:17:39;97983.38;;;-2.49;77.01
51261;BME280;61705;46.228;24.812;2023-01-26T07:20:06;97983.38;;;-2.47;76.90
51261;BME280;61705;46.228;24.812;2023-01-26T07:22:34;97986.13;;;-2.30;76.65
51261;BME280;61705;46.228;24.812;2023-01-26T07:25:03;97976.72;;;-2.24;76.53
51261;BME280;61705;46.228;24.812;2023-01-26T07:27:30;97984.47;;;-2.24;76.71
51261;BME280;61705;46.228;24.812;2023-01-26T07:29:57;97979.34;;;-2.21;76.67
51261;BME280;61705;46.228;24.812;2023-01-26T07:32:23;97980.16;;;-2.25;76.64
51261;BME280;61705;46.228;24.812;2023-01-26T07:34:50;97977.59;;;-2.20;76.71
51261;BME280;61705;46.228;24.812;2023-01-26T07:37:17;97974.91;;;-2.29;76.53
51261;BME280;61705;46.228;24.812;2023-01-26T07:39:46;97978.44;;;-2.23;76.46
51261;BME280;61705;46.228;24.812;2023-01-26T07:42:14;97979.38;;;-2.18;76.46
51261;BME280;61705;46.228;24.812;2023-01-26T07:44:41;97979.38;;;-2.16;76.20
51261;BME280;61705;46.228;24.812;2023-01-26T07:47:07;97973.38;;;-2.09;75.85
51261;BME280;61705;46.228;24.812;2023-01-26T07:49:34;97975.09;;;-2.14;75.74
51261;BME280;61705;46.228;24.812;2023-01-26T07:52:01;97981.28;;;-1.98;75.66
51261;BME280;61705;46.228;24.812;2023-01-26T07:54:30;97970.94;;;-1.92;75.26
51261;BME280;61705;46.228;24.812;2023-01-26T07:56:59;97983.00;;;-1.97;75.09
51261;BME280;61705;46.228;24.812;2023-01-26T07:59:25;97977.00;;;-1.92;74.49
51261;BME280;61705;46.228;24.812;2023-01-26T08:01:58;97974.50;;;-1.82;74.81
51261;BME280;61705;46.228;24.812;2023-01-26T08:04:27;97966.75;;;-1.79;73.99
51261;BME280;61705;46.228;24.812;2023-01-26T08:06:54;97958.97;;;-1.79;73.91
51261;BME280;61705;46.228;24.812;2023-01-26T08:09:21;97961.63;;;-1.73;73.92
51261;BME280;61705;46.228;24.812;2023-01-26T08:11:48;97972.00;;;-1.69;73.26
51261;BME280;61705;46.228;24.812;2023-01-26T08:14:14;97952.16;;;-1.68;72.98
51261;BME280;61705;46.228;24.812;2023-01-26T08:16:41;97960.78;;;-1.68;73.19
51261;BME280;61705;46.228;24.812;2023-01-26T08:19:08;97956.50;;;-1.61;73.39
51261;BME280;61705;46.228;24.812;2023-01-26T08:21:37;97941.94;;;-1.50;72.82
51261;BME280;61705;46.228;24.812;2023-01-26T08:24:17;97934.19;;;-1.40;72.17
51261;BME280;61705;46.228;24.812;2023-01-26T08:26:46;97935.13;;;-1.32;72.01
51261;BME280;61705;46.228;24.812;2023-01-26T08:29:15;97936.84;;;-1.31;71.90
51261;BME280;61705;46.228;24.812;2023-01-26T08:31:45;97942.03;;;-1.27;71.80
51261;BME280;61705;46.228;24.812;2023-01-26T08:34:14;97942.09;;;-1.22;71.29
51261;BME280;61705;46.228;24.812;2023-01-26T08:36:41;97941.22;;;-1.21;70.96
51261;BME280;61705;46.228;24.812;2023-01-26T08:39:10;97936.97;;;-1.07;71.16
51261;BME280;61705;46.228;24.812;2023-01-26T08:41:40;97939.63;;;-0.99;71.11
51261;BME280;61705;46.228;24.812;2023-01-26T08:44:09;97932.69;;;-0.97;70.94
51261;BME280;61705;46.228;24.812;2023-01-26T08:46:36;97930.97;;;-0.98;70.73
51261;BME280;61705;46.228;24.812;2023-01-26T08:49:02;97933.53;;;-1.01;70.82
51261;BME280;61705;46.228;24.812;2023-01-26T08:51:48;97929.22;;;-0.98;69.94
51261;BME280;61705;46.228;24.812;2023-01-26T08:54:16;97910.22;;;-0.97;70.06
51261;BME280;61705;46.228;24.812;2023-01-26T08:56:46;97919.75;;;-0.88;69.88
51261;BME280;61705;46.228;24.812;2023-01-26T08:59:13;97922.41;;;-0.73;69.49
51261;BME280;61705;46.228;24.812;2023-01-26T09:01:40;97922.44;;;-0.65;69.13
51261;BME280;61705;46.228;24.812;2023-01-26T09:04:07;97923.28;;;-0.63;68.85
51261;BME280;61705;46.228;24.812;2023-01-26T09:06:35;97917.28;;;-0.54;68.00
51261;BME280;61705;46.228;24.812;2023-01-26T09:09:01;97912.09;;;-0.51;67.89
51261;BME280;61705;46.228;24.812;2023-01-26T09:11:28;97908.59;;;-0.49;67.26
51261;BME280;61705;46.228;24.812;2023-01-26T09:13:55;97897.38;;;-0.41;66.44
51261;BME280;61705;46.228;24.812;2023-01-26T09:16:23;97894.81;;;-0.29;66.90
51261;BME280;61705;46.228;24.812;2023-01-26T09:18:52;97895.69;;;-0.27;66.94
51261;BME280;61705;46.228;24.812;2023-01-26T09:21:20;97896.53;;;-0.33;65.96
51261;BME280;61705;46.228;24.812;2023-01-26T09:23:46;97886.16;;;-0.37;66.06
51261;BME280;61705;46.228;24.812;2023-01-26T09:26:13;97886.16;;;-0.27;66.55
51261;BME280;61705;46.228;24.812;2023-01-26T09:28:43;97880.09;;;-0.26;65.96
51261;BME280;61705;46.228;24.812;2023-01-26T09:31:23;97873.16;;;-0.22;65.62
51261;BME280;61705;46.228;24.812;2023-01-26T09:33:50;97878.34;;;-0.04;65.52
51261;BME280;61705;46.228;24.812;2023-01-26T09:36:17;97871.44;;;0.00;64.92
51261;BME280;61705;46.228;24.812;2023-01-26T09:38:44;97859.31;;;0.02;64.46
51261;BME280;61705;46.228;24.812;2023-01-26T09:41:26;97848.91;;;0.10;64.29
51261;BME280;61705;46.228;24.812;2023-01-26T09:44:03;97849.78;;;0.15;63.87
51261;BME280;61705;46.228;24.812;2023-01-26T09:49:41;97833.28;;;0.23;62.82
51261;BME280;61705;46.228;24.812;2023-01-26T09:52:26;97831.56;;;0.32;62.24
51261;BME280;61705;46.228;24.812;2023-01-26T09:54:54;97821.97;;;0.44;62.56
51261;BME280;61705;46.228;24.812;2023-01-26T09:59:59;97814.16;;;0.52;62.89
51261;BME280;61705;46.228;24.812;2023-01-26T10:02:38;97818.47;;;0.55;63.09
51261;BME280;61705;46.228;24.812;2023-01-26T10:05:15;97795.94;;;0.54;61.18
51261;BME280;61705;46.228;24.812;2023-01-26T10:07:45;97801.06;;;0.74;61.08
51261;BME280;61705;46.228;24.812;2023-01-26T10:10:19;97788.97;;;0.63;61.24
51261;BME280;61705;46.228;24.812;2023-01-26T10:12:49;97780.28;;;0.64;61.21
51261;BME280;61705;46.228;24.812;2023-01-26T10:17:46;97784.56;;;0.82;61.56
51261;BME280;61705;46.228;24.812;2023-01-26T10:22:51;97775.81;;;0.94;61.50
51261;BME280;61705;46.228;24.812;2023-01-26T10:25:34;97775.78;;;0.99;61.51
51261;BME280;61705;46.228;24.812;2023-01-26T10:28:10;97768.78;;;1.08;60.77
51261;BME280;61705;46.228;24.812;2023-01-26T10:30:41;97771.41;;;1.07;60.84
51261;BME280;61705;46.228;24.812;2023-01-26T10:33:23;97765.31;;;1.09;60.54
51261;BME280;61705;46.228;24.812;2023-01-26T10:35:52;97760.06;;;1.12;61.02
51261;BME280;61705;46.228;24.812;2023-01-26T10:40:53;97751.44;;;1.09;60.66
51261;BME280;61705;46.228;24.812;2023-01-26T10:43:20;97758.25;;;1.25;60.89
51261;BME280;61705;46.228;24.812;2023-01-26T10:45:49;97747.84;;;1.28;60.76
51261;BME280;61705;46.228;24.812;2023-01-26T10:48:19;97747.03;;;1.18;60.96
51261;BME280;61705;46.228;24.812;2023-01-26T10:50:46;97740.03;;;1.27;60.58
51261;BME280;61705;46.228;24.812;2023-01-26T10:53:17;97731.25;;;1.38;60.77
51261;BME280;61705;46.228;24.812;2023-01-26T10:56:10;97726.94;;;1.37;60.27
51261;BME280;61705;46.228;24.812;2023-01-26T10:58:54;97721.72;;;1.37;60.19
51261;BME280;61705;46.228;24.812;2023-01-26T11:01:22;97713.81;;;1.50;59.99
51261;BME280;61705;46.228;24.812;2023-01-26T11:06:29;97712.94;;;1.51;60.26
51261;BME280;61705;46.228;24.812;2023-01-26T11:11:40;97698.13;;;1.56;60.45
51261;BME280;61705;46.228;24.812;2023-01-26T11:14:15;97695.44;;;1.63;60.05
51261;BME280;61705;46.228;24.812;2023-01-26T11:22:18;97686.53;;;1.84;59.85
51261;BME280;61705;46.228;24.812;2023-01-26T11:30:01;97683.78;;;2.00;59.68
51261;BME280;61705;46.228;24.812;2023-01-26T11:33:07;97675.16;;;1.93;59.96
51261;BME280;61705;46.228;24.812;2023-01-26T11:36:09;97675.94;;;2.03;59.00
51261;BME280;61705;46.228;24.812;2023-01-26T11:38:39;97671.34;;;2.22;59.13
51261;BME280;61705;46.228;24.812;2023-01-26T11:41:22;97667.88;;;2.23;58.85
51261;BME280;61705;46.228;24.812;2023-01-26T11:44:01;97660.91;;;2.22;59.04
51261;BME280;61705;46.228;24.812;2023-01-26T11:46:51;97656.56;;;2.22;59.31
51261;BME280;61705;46.228;24.812;2023-01-26T11:55:01;97653.09;;;2.22;59.47
51261;BME280;61705;46.228;24.812;2023-01-26T11:58:32;97651.28;;;2.28;59.55
51261;BME280;61705;46.228;24.812;2023-01-26T12:00:40;97649.47;;;2.32;58.94
51261;BME280;61705;46.228;24.812;2023-01-26T12:03:18;97645.09;;;2.37;58.96
51261;BME280;61705;46.228;24.812;2023-01-26T12:05:56;97634.53;;;2.45;58.54
51261;BME280;61705;46.228;24.812;2023-01-26T12:08:44;97637.94;;;2.51;58.82
51261;BME280;61705;46.228;24.812;2023-01-26T12:11:43;97631.94;;;2.45;58.72
51261;BME280;61705;46.228;24.812;2023-01-26T12:19:54;97629.09;;;2.61;58.37
51261;BME280;61705;46.228;24.812;2023-01-26T12:22:36;97628.28;;;2.58;58.47
51261;BME280;61705;46.228;24.812;2023-01-26T12:25:17;97622.31;;;2.50;58.73
51261;BME280;61705;46.228;24.812;2023-01-26T12:27:55;97616.22;;;2.51;58.96
51261;BME280;61705;46.228;24.812;2023-01-26T12:30:39;97617.91;;;2.52;58.91
51261;BME280;61705;46.228;24.812;2023-01-26T12:33:11;97615.28;;;2.56;59.05
51261;BME280;61705;46.228;24.812;2023-01-26T12:41:55;97612.75;;;2.50;59.07
51261;BME280;61705;46.228;24.812;2023-01-26T12:44:47;97600.75;;;2.35;58.83
51261;BME280;61705;46.228;24.812;2023-01-26T12:47:26;97602.56;;;2.33;59.52
51261;BME280;61705;46.228;24.812;2023-01-26T12:53:00;97591.25;;;2.33;59.35
51261;BME280;61705;46.228;24.812;2023-01-26T12:56:01;97596.31;;;2.42;59.67
51261;BME280;61705;46.228;24.812;2023-01-26T13:00:59;97583.88;;;2.59;59.71
51261;BME280;61705;46.228;24.812;2023-01-26T13:03:31;97572.59;;;2.60;59.54
51261;BME280;61705;46.228;24.812;2023-01-26T13:06:01;97577.72;;;2.65;59.40
51261;BME280;61705;46.228;24.812;2023-01-26T13:08:58;97573.31;;;2.70;59.45
51261;BME280;61705;46.228;24.812;2023-01-26T13:16:53;97558.56;;;2.66;59.17
51261;BME280;61705;46.228;24.812;2023-01-26T13:27:28;97549.66;;;2.81;59.11
51261;BME280;61705;46.228;24.812;2023-01-26T13:29:55;97541.78;;;2.82;59.50
51261;BME280;61705;46.228;24.812;2023-01-26T13:34:52;97540.94;;;2.82;59.37
51261;BME280;61705;46.228;24.812;2023-01-26T13:37:32;97541.72;;;2.85;59.49
51261;BME280;61705;46.228;24.812;2023-01-26T13:40:25;97540.84;;;2.88;59.32
51261;BME280;61705;46.228;24.812;2023-01-26T13:43:26;97540.06;;;2.81;59.63
51261;BME280;61705;46.228;24.812;2023-01-26T13:46:09;97534.81;;;2.84;59.74
51261;BME280;61705;46.228;24.812;2023-01-26T13:48:51;97537.53;;;2.77;59.95
51261;BME280;61705;46.228;24.812;2023-01-26T13:51:25;97530.59;;;2.77;59.63
51261;BME280;61705;46.228;24.812;2023-01-26T13:54:04;97522.72;;;2.80;59.68
51261;BME280;61705;46.228;24.812;2023-01-26T13:56:35;97518.16;;;2.90;59.53
51261;BME280;61705;46.228;24.812;2023-01-26T13:59:13;97517.34;;;2.87;59.66
51261;BME280;61705;46.228;24.812;2023-01-26T14:01:52;97519.97;;;2.87;59.45
51261;BME280;61705;46.228;24.812;2023-01-26T14:04:25;97517.41;;;2.85;59.62
51261;BME280;61705;46.228;24.812;2023-01-26T14:07:00;97505.44;;;2.72;60.14
51261;BME280;61705;46.228;24.812;2023-01-26T14:09:30;97509.94;;;2.64;60.38
51261;BME280;61705;46.228;24.812;2023-01-26T14:12:03;97501.22;;;2.63;60.58
51261;BME280;61705;46.228;24.812;2023-01-26T14:14:33;97503.84;;;2.63;60.54
51261;BME280;61705;46.228;24.812;2023-01-26T14:17:06;97503.03;;;2.61;60.65
51261;BME280;61705;46.228;24.812;2023-01-26T14:19:38;97510.00;;;2.59;60.83
51261;BME280;61705;46.228;24.812;2023-01-26T14:22:10;97504.88;;;2.54;60.90
51261;BME280;61705;46.228;24.812;2023-01-26T14:24:38;97498.00;;;2.49;61.25
51261;BME280;61705;46.228;24.812;2023-01-26T14:29:54;97490.22;;;2.47;61.83
51261;BME280;61705;46.228;24.812;2023-01-26T14:32:21;97484.19;;;2.42;62.09